This is the latest recevied weather packets stored in our database for station/object SP8RPA-10. If no packets are shown the sender has not sent any weather packets the latest 1 day(s).
| Time | Temp. | Humidity | Pressure | Rain* | Wind** | Luminosity | Snow |
|---|---|---|---|---|---|---|---|
| 1778072260 | 25° C | 40% | 1008.7 hPa | - | - | - | - |
| 1778070458 | 25.56° C | 38% | 1008.9 hPa | - | - | - | - |
| 1778065071 | 24.44° C | 41% | 1009.2 hPa | - | - | - | - |
| 1778063269 | 23.89° C | 41% | 1009.4 hPa | - | - | - | - |
| 1778059665 | 24.44° C | 38% | 1009.1 hPa | - | - | - | - |
| 1778057864 | 22.22° C | 42% | 1007.9 hPa | - | - | - | - |
| 1778054261 | 22.22° C | 43% | 1008.9 hPa | - | - | - | - |
| 1778052460 | 22.22° C | 43% | 1008.6 hPa | - | - | - | - |
| 1778050658 | 21.11° C | 46% | 1008.3 hPa | - | - | - | - |
| 1778048857 | 18.89° C | 49% | 1008.4 hPa | - | - | - | - |
| 1778047055 | 18.89° C | 48% | 1008.9 hPa | - | - | - | - |
| 1778045270 | 17.78° C | 48% | 1009.2 hPa | - | - | - | - |
| 1778041667 | 18.89° C | 44% | 1008.8 hPa | - | - | - | - |
| 1778039866 | 17.78° C | 45% | 1008.8 hPa | - | - | - | - |
| 1778038064 | 17.22° C | 46% | 1008.8 hPa | - | - | - | - |
| 1778034461 | 16.11° C | 46% | 1009 hPa | - | - | - | - |
| 1778032660 | 13.89° C | 49% | 1009.1 hPa | - | - | - | - |
| 1778027256 | 12.78° C | 57% | 1009.3 hPa | - | - | - | - |
| 1778023670 | 17.22° C | 40% | 1009.2 hPa | - | - | - | - |
| 1778020067 | 15.56° C | 47% | 1009.6 hPa | - | - | - | - |
| 1778014662 | 18.89° C | 37% | 1009.7 hPa | - | - | - | - |
| 1778003854 | 21.67° C | 35% | 1009.3 hPa | - | - | - | - |
* Rain since midnight (hover to see other rain measurements)
** Current wind speed in m/s (hover to see current wind gust speed)